Time;durP1;ratioP1;P1;durP2;ratioP2;P2;SDS_P1;SDS_P2;PMS_P1;PMS_P2;Temp;Humidity;BMP_temperature;BMP_pressure;BME280_temperature;BME280_humidity;BME280_pressure;Samples;Min_cycle;Max_cycle;Signal;HPM_P1;HPM_P2
2023/06/17 00:02:16;;;;;;;9.60;6.68;;;17.60;1.00;;;;;;7385016;19;20073;-70
2023/06/17 00:04:46;;;;;;;9.95;6.70;;;17.60;1.00;;;;;;7385468;19;20030;-70
2023/06/17 00:07:18;;;;;;;9.55;6.90;;;17.50;1.00;;;;;;7384772;19;20014;-70
2023/06/17 00:09:48;;;;;;;8.52;6.93;;;17.10;1.00;;;;;;7386367;19;20014;-71
2023/06/17 00:12:18;;;;;;;9.25;6.53;;;17.10;1.00;;;;;;7385793;19;20038;-70
2023/06/17 00:14:50;;;;;;;8.48;6.15;;;16.90;1.00;;;;;;7387654;19;20292;-70
2023/06/17 00:17:21;;;;;;;11.07;6.80;;;16.90;1.00;;;;;;7385986;19;20483;-70
2023/06/17 00:19:51;;;;;;;7.30;6.45;;;16.90;1.00;;;;;;7384745;19;20021;-71
2023/06/17 00:22:24;;;;;;;8.52;7.03;;;16.90;1.00;;;;;;7384569;19;20631;-70
2023/06/17 00:24:54;;;;;;;9.40;6.47;;;16.80;1.00;;;;;;7384717;19;20017;-71
2023/06/17 00:27:24;;;;;;;11.38;7.28;;;16.90;1.00;;;;;;7384005;19;20031;-70
2023/06/17 00:29:54;;;;;;;10.75;7.72;;;17.00;1.00;;;;;;7386339;19;20021;-71
2023/06/17 00:32:24;;;;;;;11.70;8.50;;;17.00;1.00;;;;;;7385228;19;20078;-71
2023/06/17 00:34:54;;;;;;;13.93;9.25;;;17.10;1.00;;;;;;7388707;19;20081;-70
2023/06/17 00:37:26;;;;;;;16.02;9.70;;;16.90;1.00;;;;;;7386742;19;20793;-70
2023/06/17 00:39:56;;;;;;;18.95;8.98;;;16.80;1.00;;;;;;7383095;19;20018;-71
2023/06/17 00:42:26;;;;;;;12.82;8.43;;;16.80;1.00;;;;;;7384541;19;20416;-71
2023/06/17 00:44:56;;;;;;;15.27;8.43;;;16.70;1.00;;;;;;7384658;19;20026;-70
2023/06/17 00:47:27;;;;;;;12.20;7.80;;;16.70;1.00;;;;;;7383813;19;20014;-70
2023/06/17 00:49:57;;;;;;;10.95;7.65;;;16.60;1.00;;;;;;7383814;19;20015;-70
2023/06/17 00:52:30;;;;;;;11.68;7.68;;;16.70;1.00;;;;;;7381392;19;20507;-71
2023/06/17 00:55:12;;;;;;;12.80;8.05;;;16.70;1.00;;;;;;7383273;19;20612;-71
2023/06/17 00:57:44;;;;;;;10.32;7.63;;;16.60;1.00;;;;;;7383383;19;20086;-70
2023/06/17 01:00:16;;;;;;;9.63;6.78;;;16.50;1.00;;;;;;7382069;19;20109;-70
2023/06/17 01:02:46;;;;;;;13.65;7.90;;;16.50;1.00;;;;;;7383589;19;20018;-70
2023/06/17 01:05:18;;;;;;;14.65;7.22;;;16.50;1.00;;;;;;7384654;19;20467;-70
2023/06/17 01:08:12;;;;;;;8.82;6.85;;;16.40;1.00;;;;;;7382274;19;20014;-70
2023/06/17 01:10:49;;;;;;;9.60;7.07;;;16.20;1.00;;;;;;7384659;19;20348;-70
2023/06/17 01:13:20;;;;;;;7.45;6.25;;;16.30;1.00;;;;;;7383374;19;20021;-71
2023/06/17 01:15:50;;;;;;;8.90;6.78;;;16.20;1.00;;;;;;7383454;19;20073;-70
2023/06/17 01:18:21;;;;;;;9.30;6.70;;;15.90;1.00;;;;;;7383148;19;20018;-69
2023/06/17 01:20:55;;;;;;;8.25;6.47;;;15.90;1.00;;;;;;7382306;19;20011;-69
2023/06/17 01:23:31;;;;;;;;;;;15.90;1.00;;;;;;7384606;19;20032;-68
2023/06/17 01:26:05;;;;;;;7.47;6.65;;;15.80;1.00;;;;;;7383625;19;19919;-70
2023/06/17 01:28:36;;;;;;;9.50;6.83;;;15.70;1.00;;;;;;7383178;19;20015;-71
2023/06/17 01:31:08;;;;;;;8.00;6.97;;;15.90;1.00;;;;;;7382499;19;20021;-70
2023/06/17 01:33:39;;;;;;;9.32;7.20;;;15.90;1.00;;;;;;7383202;19;20018;-69
2023/06/17 01:36:16;;;;;;;10.02;7.65;;;16.10;1.00;;;;;;7383299;19;20031;-70
2023/06/17 01:38:50;;;;;;;10.20;6.70;;;16.20;1.00;;;;;;7383134;19;20022;-71
2023/06/17 01:41:27;;;;;;;8.50;6.75;;;16.30;1.00;;;;;;7380013;19;20014;-70
2023/06/17 01:43:59;;;;;;;10.35;6.78;;;16.30;1.00;;;;;;7381812;19;20010;-70
2023/06/17 01:46:30;;;;;;;10.00;7.28;;;16.40;1.00;;;;;;7382336;19;20014;-71
2023/06/17 01:49:00;;;;;;;13.18;6.97;;;16.30;1.00;;;;;;7382674;19;20014;-71
2023/06/17 01:51:30;;;;;;;8.30;6.60;;;16.10;1.00;;;;;;7381161;19;20019;-71
2023/06/17 01:54:00;;;;;;;8.93;7.45;;;16.10;1.00;;;;;;7382148;19;20479;-71
2023/06/17 01:56:33;;;;;;;7.68;6.57;;;16.00;1.00;;;;;;7382342;19;20010;-71
2023/06/17 01:59:03;;;;;;;8.57;6.82;;;15.90;1.00;;;;;;7381929;19;20094;-70
2023/06/17 02:01:33;;;;;;;11.52;7.10;;;15.80;1.00;;;;;;7379176;19;20043;-70
2023/06/17 02:04:03;;;;;;;8.55;7.15;;;15.80;1.00;;;;;;7381110;19;20039;-70
2023/06/17 02:06:32;;;;;;;10.02;7.10;;;15.70;1.00;;;;;;7385115;19;20010;-70
2023/06/17 02:09:02;;;;;;;9.05;6.78;;;15.60;1.00;;;;;;7384657;19;20359;-70
2023/06/17 02:11:35;;;;;;;11.70;7.03;;;15.60;1.00;;;;;;7379341;19;20014;-70
2023/06/17 02:14:05;;;;;;;9.90;6.57;;;15.80;1.00;;;;;;7381501;19;20054;-70
2023/06/17 02:16:42;;;;;;;8.43;6.90;;;15.90;1.00;;;;;;7381543;19;21334;-70
2023/06/17 02:19:12;;;;;;;9.35;7.20;;;16.00;1.00;;;;;;7382829;19;20506;-70
2023/06/17 02:21:42;;;;;;;8.30;6.28;;;16.10;1.00;;;;;;7390156;19;20011;-71
2023/06/17 02:24:12;;;;;;;7.75;5.93;;;16.10;1.00;;;;;;7389486;19;20390;-70
2023/06/17 02:26:45;;;;;;;9.90;7.10;;;16.10;1.00;;;;;;7391390;19;20019;-70
2023/06/17 02:29:15;;;;;;;8.25;6.90;;;16.00;1.00;;;;;;7392450;19;20014;-70
2023/06/17 02:31:45;;;;;;;10.48;6.68;;;15.60;1.00;;;;;;7389831;19;20109;-70
2023/06/17 02:34:15;;;;;;;9.25;6.97;;;15.50;1.00;;;;;;7391375;19;20011;-70
2023/06/17 02:36:46;;;;;;;9.77;7.28;;;15.50;1.00;;;;;;7388674;19;20015;-70
2023/06/17 02:39:16;;;;;;;9.55;6.65;;;15.50;1.00;;;;;;7387979;19;20023;-70
2023/06/17 02:41:48;;;;;;;10.70;7.15;;;15.40;1.00;;;;;;7387571;19;20094;-70
2023/06/17 02:44:18;;;;;;;8.80;6.93;;;15.30;1.00;;;;;;7387452;19;20018;-70
2023/06/17 02:46:48;;;;;;;9.10;7.15;;;15.30;1.00;;;;;;7388658;19;20015;-70
2023/06/17 02:49:18;;;;;;;11.27;6.80;;;15.20;1.00;;;;;;7390020;19;20018;-71
2023/06/17 02:51:48;;;;;;;9.20;7.18;;;15.20;1.00;;;;;;7388448;19;20027;-71
2023/06/17 02:54:18;;;;;;;8.57;6.57;;;15.20;1.00;;;;;;7389019;19;20014;-70
2023/06/17 02:56:50;;;;;;;7.45;6.43;;;15.20;1.00;;;;;;7388376;19;20052;-71
2023/06/17 02:59:21;;;;;;;8.00;6.15;;;15.20;1.00;;;;;;7386887;19;20031;-70
2023/06/17 03:01:51;;;;;;;9.95;6.15;;;15.30;1.00;;;;;;7391193;19;20018;-70
2023/06/17 03:04:23;;;;;;;7.93;5.50;;;15.40;1.00;;;;;;7390044;19;20019;-70
2023/06/17 03:06:53;;;;;;;8.90;6.55;;;15.40;1.00;;;;;;7387820;19;20015;-70
2023/06/17 03:09:24;;;;;;;9.90;6.72;;;15.60;1.00;;;;;;7388487;19;20025;-70
2023/06/17 03:11:57;;;;;;;9.40;5.82;;;15.60;1.00;;;;;;7388815;19;20022;-70
2023/06/17 03:14:29;;;;;;;7.72;6.47;;;15.60;1.00;;;;;;7388283;19;20031;-70
2023/06/17 03:17:00;;;;;;;8.10;6.63;;;15.60;1.00;;;;;;7388316;19;20014;-70
2023/06/17 03:19:31;;;;;;;11.20;6.40;;;15.60;1.00;;;;;;7386217;19;20035;-70
2023/06/17 03:22:03;;;;;;;8.80;6.68;;;15.70;1.00;;;;;;7384878;19;20040;-70
2023/06/17 03:24:33;;;;;;;9.55;6.88;;;15.70;1.00;;;;;;7386095;19;20018;-70
2023/06/17 03:27:06;;;;;;;10.57;6.80;;;15.60;1.00;;;;;;7387739;19;20463;-71
2023/06/17 03:29:37;;;;;;;7.85;6.55;;;15.70;1.00;;;;;;7389910;19;20045;-70
2023/06/17 03:32:08;;;;;;;9.38;7.30;;;15.80;1.00;;;;;;7385423;19;20475;-71
2023/06/17 03:34:38;;;;;;;8.40;6.50;;;15.70;1.00;;;;;;7389674;19;20014;-71
2023/06/17 03:37:08;;;;;;;9.95;7.13;;;15.90;1.00;;;;;;7387967;19;20015;-71
2023/06/17 03:39:38;;;;;;;10.20;7.63;;;16.00;1.00;;;;;;7386612;19;20035;-71
2023/06/17 03:42:11;;;;;;;9.93;6.78;;;16.00;1.00;;;;;;7385904;19;20100;-70
2023/06/17 03:44:41;;;;;;;7.45;6.40;;;16.40;1.00;;;;;;7385896;19;20096;-70
2023/06/17 03:47:11;;;;;;;7.82;6.10;;;17.10;1.00;;;;;;7386925;19;20015;-71
2023/06/17 03:49:42;;;;;;;8.55;5.75;;;17.20;1.00;;;;;;7390037;19;20019;-71
2023/06/17 03:52:12;;;;;;;8.07;5.82;;;16.90;1.00;;;;;;7389861;19;20642;-70
2023/06/17 03:54:42;;;;;;;8.20;6.05;;;16.90;1.00;;;;;;7385111;19;20039;-71
2023/06/17 03:57:15;;;;;;;9.30;5.65;;;17.20;1.00;;;;;;7387942;19;20018;-71
2023/06/17 03:59:45;;;;;;;10.43;5.57;;;17.70;1.00;;;;;;7391612;19;20020;-71
2023/06/17 04:02:15;;;;;;;6.43;5.63;;;18.00;1.00;;;;;;7385922;19;20252;-71
2023/06/17 04:04:46;;;;;;;7.00;5.18;;;18.50;1.00;;;;;;7386056;19;20022;-71
2023/06/17 04:07:16;;;;;;;10.35;6.10;;;18.70;1.00;;;;;;7386396;19;20110;-71
2023/06/17 04:09:46;;;;;;;8.63;5.28;;;19.00;1.00;;;;;;7390347;19;20015;-71
2023/06/17 04:12:39;;;;;;;8.50;5.47;;;19.30;1.00;;;;;;7383803;19;20418;-71
2023/06/17 04:15:10;;;;;;;6.93;6.10;;;19.30;1.00;;;;;;7383881;19;20503;-71
2023/06/17 04:17:40;;;;;;;7.78;6.22;;;19.50;1.00;;;;;;7385008;19;20018;-71
2023/06/17 04:20:12;;;;;;;8.38;6.15;;;19.60;1.00;;;;;;7384309;19;20031;-70
2023/06/17 04:22:44;;;;;;;8.40;6.35;;;19.50;1.00;;;;;;7385170;19;20047;-71
2023/06/17 04:25:20;;;;;;;9.55;6.25;;;19.80;1.00;;;;;;7385188;19;20022;-71
2023/06/17 04:27:53;;;;;;;8.95;6.07;;;19.60;1.00;;;;;;7385574;19;20029;-71
2023/06/17 04:30:24;;;;;;;8.18;6.32;;;19.90;1.00;;;;;;7388267;19;20082;-70
2023/06/17 04:32:58;;;;;;;11.13;6.20;;;18.50;1.00;;;;;;7385455;19;20376;-70
2023/06/17 04:35:28;;;;;;;7.55;6.50;;;19.00;1.00;;;;;;7388503;19;20006;-71
2023/06/17 04:37:58;;;;;;;9.25;6.45;;;18.50;1.00;;;;;;7387948;19;20364;-70
2023/06/17 04:40:28;;;;;;;6.90;6.15;;;20.10;1.00;;;;;;7381976;19;20011;-70
2023/06/17 04:43:01;;;;;;;8.30;6.65;;;21.50;1.00;;;;;;7383162;19;20021;-70
2023/06/17 04:45:31;;;;;;;10.30;6.78;;;22.10;1.00;;;;;;7382977;19;20018;-70
2023/06/17 04:48:03;;;;;;;8.40;6.82;;;21.10;1.00;;;;;;7387005;19;20024;-70
2023/06/17 04:50:34;;;;;;;10.20;7.05;;;19.60;1.00;;;;;;7382786;19;20031;-70
2023/06/17 04:53:04;;;;;;;7.40;6.70;;;18.40;1.00;;;;;;7386074;19;20035;-70
2023/06/17 04:55:35;;;;;;;10.43;6.53;;;19.20;1.00;;;;;;7389518;19;20010;-71
2023/06/17 04:58:08;;;;;;;9.35;6.85;;;18.90;1.00;;;;;;7384021;19;20017;-70
2023/06/17 05:00:38;;;;;;;11.43;6.95;;;19.80;1.00;;;;;;7384258;19;20043;-70
2023/06/17 05:03:08;;;;;;;8.80;7.07;;;19.90;1.00;;;;;;7387749;19;20083;-71
2023/06/17 05:05:38;;;;;;;10.02;6.40;;;18.20;1.00;;;;;;7387580;19;20018;-71
2023/06/17 05:08:08;;;;;;;8.57;6.57;;;18.80;1.00;;;;;;7388793;19;20018;-71
2023/06/17 05:10:38;;;;;;;8.75;6.53;;;20.80;1.00;;;;;;7387844;19;20011;-71
2023/06/17 05:13:11;;;;;;;13.95;7.00;;;21.90;1.00;;;;;;7389212;19;20035;-71
2023/06/17 05:15:41;;;;;;;8.95;6.60;;;22.50;1.00;;;;;;7387542;19;20035;-71
2023/06/17 05:18:11;;;;;;;12.27;7.05;;;21.80;1.00;;;;;;7389279;19;20014;-70
2023/06/17 05:20:41;;;;;;;8.50;7.00;;;22.60;1.00;;;;;;7388578;19;20113;-70
2023/06/17 05:23:11;;;;;;;7.68;6.57;;;23.20;1.00;;;;;;7388433;19;20031;-70
2023/06/17 05:25:40;;;;;;;9.27;6.72;;;23.10;1.00;;;;;;7387469;19;20090;-71
2023/06/17 05:28:13;;;;;;;10.20;7.07;;;22.50;1.00;;;;;;7389213;19;20090;-70
2023/06/17 05:30:43;;;;;;;10.30;7.07;;;21.90;1.00;;;;;;7392265;19;20027;-70
2023/06/17 05:33:13;;;;;;;10.35;6.75;;;22.60;1.00;;;;;;7389240;19;20010;-70
2023/06/17 05:35:43;;;;;;;11.05;7.43;;;22.70;1.00;;;;;;7388195;19;20014;-70
2023/06/17 05:38:13;;;;;;;10.10;7.28;;;22.70;1.00;;;;;;7388610;19;20015;-70
2023/06/17 05:40:43;;;;;;;7.75;6.47;;;22.90;1.00;;;;;;7389570;19;20035;-70
2023/06/17 05:43:16;;;;;;;6.30;5.60;;;23.10;1.00;;;;;;7387970;19;20041;-69
2023/06/17 05:45:46;;;;;;;10.95;7.35;;;23.40;1.00;;;;;;7387874;19;20017;-70
2023/06/17 05:48:16;;;;;;;8.95;6.70;;;22.70;1.00;;;;;;7388057;19;20021;-70
2023/06/17 05:50:46;;;;;;;7.78;6.80;;;22.20;1.00;;;;;;7386951;19;20420;-70
2023/06/17 05:53:17;;;;;;;9.20;6.38;;;22.60;1.00;;;;;;7387245;19;20400;-70
2023/06/17 05:55:47;;;;;;;9.43;6.38;;;23.10;1.00;;;;;;7396353;19;20014;-70
2023/06/17 05:58:20;;;;;;;7.82;6.45;;;23.20;1.00;;;;;;7399629;19;20019;-70
2023/06/17 06:00:50;;;;;;;7.97;6.65;;;22.80;1.00;;;;;;7393262;19;20482;-70
2023/06/17 06:03:20;;;;;;;8.52;6.50;;;23.50;1.00;;;;;;7392152;19;20078;-71
2023/06/17 06:05:50;;;;;;;10.32;6.40;;;22.00;1.00;;;;;;7391781;19;20430;-71
2023/06/17 06:08:20;;;;;;;9.85;6.75;;;21.80;1.00;;;;;;7391870;19;20027;-71
2023/06/17 06:10:50;;;;;;;9.85;6.55;;;21.50;1.00;;;;;;7385502;19;20019;-71
2023/06/17 06:13:23;;;;;;;13.35;6.75;;;21.10;1.00;;;;;;7388538;19;20006;-69
2023/06/17 06:15:53;;;;;;;7.22;6.15;;;21.00;1.00;;;;;;7389352;19;20015;-71
2023/06/17 06:18:23;;;;;;;10.15;6.32;;;20.80;1.00;;;;;;7391104;19;20010;-70
2023/06/17 06:20:53;;;;;;;7.45;6.03;;;21.00;1.00;;;;;;7386672;19;20365;-69
2023/06/17 06:23:22;;;;;;;9.57;6.13;;;21.50;1.00;;;;;;7388594;19;20020;-70
2023/06/17 06:25:53;;;;;;;9.35;6.28;;;21.50;1.00;;;;;;7388888;19;20024;-69
2023/06/17 06:28:25;;;;;;;9.95;7.15;;;22.10;1.00;;;;;;7386470;19;20014;-71
2023/06/17 06:30:55;;;;;;;10.00;6.63;;;21.70;1.00;;;;;;7386129;19;20511;-71
2023/06/17 06:33:25;;;;;;;10.73;6.78;;;21.50;1.00;;;;;;7387670;19;20528;-71
2023/06/17 06:35:55;;;;;;;11.35;7.72;;;22.80;1.00;;;;;;7387801;19;20039;-69
2023/06/17 06:38:25;;;;;;;8.98;6.45;;;22.90;1.00;;;;;;7385730;19;20487;-70
2023/06/17 06:40:55;;;;;;;8.10;6.53;;;24.10;1.00;;;;;;7388736;19;20509;-70
2023/06/17 06:43:27;;;;;;;9.38;6.38;;;23.70;1.00;;;;;;7387580;19;20020;-71
2023/06/17 06:45:57;;;;;;;11.52;6.05;;;22.00;1.00;;;;;;7388591;19;20364;-71
2023/06/17 06:48:27;;;;;;;11.55;6.93;;;22.20;1.00;;;;;;7387383;19;20054;-70
2023/06/17 06:50:57;;;;;;;14.48;6.68;;;22.50;1.00;;;;;;7385861;19;20050;-71
2023/06/17 06:53:27;;;;;;;9.38;6.38;;;22.90;1.00;;;;;;7387006;19;20026;-71
2023/06/17 06:55:58;;;;;;;8.43;5.75;;;23.30;1.00;;;;;;7388138;19;20022;-70
2023/06/17 06:58:32;;;;;;;10.32;6.38;;;23.00;1.00;;;;;;7390573;19;20053;-71
2023/06/17 07:01:02;;;;;;;8.50;6.82;;;22.70;1.00;;;;;;7384917;19;20015;-70
2023/06/17 07:03:32;;;;;;;8.60;6.32;;;22.50;1.00;;;;;;7386056;19;20014;-70
2023/06/17 07:06:02;;;;;;;11.02;6.15;;;22.90;1.00;;;;;;7385794;19;20021;-70
2023/06/17 07:08:32;;;;;;;7.80;5.70;;;23.40;1.00;;;;;;7388210;19;20014;-71
2023/06/17 07:11:03;;;;;;;8.63;6.03;;;23.30;1.00;;;;;;7384595;19;20018;-71
2023/06/17 07:13:35;;;;;;;7.30;5.93;;;23.30;1.00;;;;;;7386400;19;20092;-70
2023/06/17 07:16:06;;;;;;;7.25;6.00;;;23.60;1.00;;;;;;7386735;19;20789;-70
2023/06/17 07:18:36;;;;;;;7.82;6.10;;;23.70;1.00;;;;;;7385486;19;20946;-69
2023/06/17 07:21:06;;;;;;;8.95;5.90;;;23.20;1.00;;;;;;7385481;19;20512;-70
2023/06/17 07:23:36;;;;;;;6.57;5.72;;;23.60;1.00;;;;;;7386293;19;20036;-71
2023/06/17 07:26:06;;;;;;;7.90;6.28;;;24.30;1.00;;;;;;7385621;19;20025;-70
2023/06/17 07:28:39;;;;;;;12.55;6.35;;;24.40;1.00;;;;;;7386887;19;20503;-71
2023/06/17 07:31:09;;;;;;;7.90;5.85;;;24.10;1.00;;;;;;7385964;19;20085;-71
2023/06/17 07:33:39;;;;;;;7.57;5.68;;;24.20;1.00;;;;;;7387520;19;20031;-69
2023/06/17 07:36:09;;;;;;;7.25;5.38;;;24.00;1.00;;;;;;7386956;19;20018;-70
2023/06/17 07:38:40;;;;;;;8.73;5.88;;;24.30;1.00;;;;;;7386306;19;20015;-70
2023/06/17 07:41:10;;;;;;;8.65;5.00;;;24.60;1.00;;;;;;7386816;19;20714;-73
2023/06/17 07:43:42;;;;;;;9.38;5.47;;;24.10;1.00;;;;;;7385963;19;20011;-71
2023/06/17 07:46:12;;;;;;;5.93;5.32;;;24.80;1.00;;;;;;7392162;19;20015;-72
2023/06/17 07:48:42;;;;;;;7.78;5.57;;;24.70;1.00;;;;;;7388281;19;20017;-70
2023/06/17 07:51:12;;;;;;;6.88;5.35;;;24.60;1.00;;;;;;7383776;19;20039;-70
2023/06/17 07:53:42;;;;;;;7.93;5.43;;;24.60;1.00;;;;;;7388990;19;20018;-70
2023/06/17 07:56:12;;;;;;;7.38;5.85;;;24.00;1.00;;;;;;7384773;19;20634;-70
2023/06/17 07:58:44;;;;;;;6.97;5.05;;;24.40;1.00;;;;;;7385668;19;20014;-70
2023/06/17 08:01:15;;;;;;;7.05;5.70;;;24.60;1.00;;;;;;7384235;19;20358;-71
2023/06/17 08:03:45;;;;;;;7.53;5.75;;;24.70;1.00;;;;;;7386217;19;20082;-71
2023/06/17 08:06:16;;;;;;;10.40;6.30;;;24.90;1.00;;;;;;7383418;19;20021;-71
2023/06/17 08:08:46;;;;;;;8.05;5.00;;;24.30;1.00;;;;;;7387164;19;20014;-71
2023/06/17 08:11:16;;;;;;;8.45;5.82;;;23.80;1.00;;;;;;7384355;19;20025;-70
2023/06/17 08:13:49;;;;;;;6.63;4.88;;;24.00;1.00;;;;;;7385049;19;20028;-71
2023/06/17 08:16:19;;;;;;;6.93;5.22;;;24.20;1.00;;;;;;7384468;19;20024;-70
2023/06/17 08:18:49;;;;;;;6.85;4.85;;;24.20;1.00;;;;;;7387375;19;20018;-70
2023/06/17 08:21:19;;;;;;;5.53;4.95;;;24.40;1.00;;;;;;7383229;19;20021;-71
2023/06/17 08:23:48;;;;;;;6.80;4.90;;;24.00;1.00;;;;;;7384306;19;20043;-69
2023/06/17 08:26:18;;;;;;;9.57;4.97;;;24.50;1.00;;;;;;7382264;19;20021;-71
2023/06/17 08:28:51;;;;;;;6.97;5.47;;;24.60;1.00;;;;;;7384963;19;20014;-71
2023/06/17 08:31:26;;;;;;;8.00;4.78;;;24.80;1.00;;;;;;7385532;19;20018;-70
2023/06/17 08:33:56;;;;;;;6.25;5.30;;;24.90;1.00;;;;;;7381932;19;20019;-71
2023/06/17 08:36:26;;;;;;;6.07;5.18;;;24.50;1.00;;;;;;7384090;19;20038;-70
2023/06/17 08:38:56;;;;;;;6.93;5.03;;;25.00;1.00;;;;;;7382684;19;20609;-71
2023/06/17 08:41:27;;;;;;;6.78;5.65;;;25.40;1.00;;;;;;7385333;19;20015;-71
2023/06/17 08:44:04;;;;;;;6.22;4.95;;;24.70;1.00;;;;;;7385345;19;20928;-71
2023/06/17 08:46:34;;;;;;;8.23;4.70;;;25.00;1.00;;;;;;7386029;19;20019;-71
2023/06/17 08:49:06;;;;;;;11.60;5.32;;;25.20;1.00;;;;;;7386920;19;20003;-70
2023/06/17 08:51:37;;;;;;;7.07;4.55;;;25.10;1.00;;;;;;7388199;19;20401;-69
2023/06/17 08:54:08;;;;;;;6.10;4.20;;;24.80;1.00;;;;;;7383278;19;20027;-70
2023/06/17 08:56:38;;;;;;;5.03;4.38;;;25.00;1.00;;;;;;7383781;19;20015;-70
2023/06/17 08:59:11;;;;;;;8.07;5.22;;;24.90;1.00;;;;;;7382106;19;20353;-71
2023/06/17 09:01:42;;;;;;;6.93;4.97;;;25.20;1.00;;;;;;7383580;19;20038;-71
2023/06/17 09:04:12;;;;;;;5.28;4.45;;;25.00;1.00;;;;;;7382530;19;20035;-70
2023/06/17 09:06:44;;;;;;;5.45;4.43;;;25.10;1.00;;;;;;7381356;19;20035;-71
2023/06/17 09:09:14;;;;;;;7.20;4.45;;;25.00;1.00;;;;;;7385695;19;20039;-70
2023/06/17 09:11:51;;;;;;;6.15;4.03;;;25.20;1.00;;;;;;7383282;19;20022;-69
2023/06/17 09:14:25;;;;;;;6.55;4.45;;;25.60;1.00;;;;;;7381801;19;20014;-70
2023/06/17 09:16:55;;;;;;;4.80;4.18;;;25.40;1.00;;;;;;7382445;19;20021;-70
2023/06/17 09:19:25;;;;;;;7.93;4.50;;;25.80;1.00;;;;;;7381490;19;20487;-71
2023/06/17 09:21:56;;;;;;;4.97;3.90;;;26.00;1.00;;;;;;7382843;19;20019;-71
2023/06/17 09:24:31;;;;;;;5.40;4.32;;;25.90;1.00;;;;;;7381721;19;20026;-71
2023/06/17 09:27:02;;;;;;;5.53;4.60;;;26.10;1.00;;;;;;7380952;19;20018;-71
2023/06/17 09:29:35;;;;;;;4.68;4.18;;;26.20;1.00;;;;;;7381817;19;20130;-70
2023/06/17 09:32:07;;;;;;;7.47;3.80;;;26.20;1.00;;;;;;7381747;19;20030;-70
2023/06/17 09:34:37;;;;;;;5.95;4.63;;;25.80;1.00;;;;;;7381684;19;20490;-71
2023/06/17 09:37:08;;;;;;;7.68;4.38;;;26.30;1.00;;;;;;7381313;19;20010;-71
2023/06/17 09:39:38;;;;;;;6.93;4.22;;;26.40;1.00;;;;;;7381098;19;20515;-69
2023/06/17 09:42:12;;;;;;;5.57;4.20;;;26.60;1.00;;;;;;7382880;19;20022;-70
2023/06/17 09:44:46;;;;;;;6.15;4.50;;;26.00;1.00;;;;;;7380555;19;20028;-71
2023/06/17 09:47:22;;;;;;;6.03;4.00;;;25.90;1.00;;;;;;7384136;19;20017;-69
2023/06/17 09:49:52;;;;;;;8.38;4.57;;;25.50;1.00;;;;;;7381010;19;20462;-70
2023/06/17 09:52:23;;;;;;;4.82;4.28;;;25.60;1.00;;;;;;7381500;19;20011;-70
2023/06/17 09:54:54;;;;;;;6.93;4.38;;;26.10;1.00;;;;;;7381168;19;20094;-69
2023/06/17 09:57:26;;;;;;;5.03;4.30;;;26.10;1.00;;;;;;7382269;19;20010;-70
2023/06/17 10:00:00;;;;;;;6.88;4.93;;;26.50;1.00;;;;;;7379241;19;20018;-70
2023/06/17 10:02:31;;;;;;;4.85;4.05;;;26.30;1.00;;;;;;7380911;19;20367;-70
2023/06/17 10:05:01;;;;;;;5.85;4.20;;;26.30;1.00;;;;;;7379362;19;20014;-70
2023/06/17 10:07:38;;;;;;;4.75;4.25;;;26.10;1.00;;;;;;7377273;19;20119;-70
2023/06/17 10:10:12;;;;;;;4.43;3.90;;;25.90;1.00;;;;;;7384572;19;20018;-70
2023/06/17 10:12:44;;;;;;;;;;;25.90;1.00;;;;;;7380461;19;20094;-69
2023/06/17 10:15:21;;;;;;;7.85;4.20;;;26.30;1.00;;;;;;7380743;19;19923;-69
2023/06/17 10:17:53;;;;;;;5.03;4.43;;;26.10;1.00;;;;;;7380842;19;20594;-69
2023/06/17 10:20:26;;;;;;;5.72;4.70;;;26.20;1.00;;;;;;7380128;19;20010;-69
2023/06/17 10:22:56;;;;;;;7.55;4.00;;;26.80;1.00;;;;;;7380119;19;20110;-71
2023/06/17 10:25:26;;;;;;;9.95;4.57;;;26.80;1.00;;;;;;7378040;19;20014;-69
2023/06/17 10:27:57;;;;;;;6.07;4.40;;;26.50;1.00;;;;;;7378523;19;20014;-71
2023/06/17 10:30:30;;;;;;;6.35;4.60;;;26.80;1.00;;;;;;7383826;19;20661;-69
2023/06/17 10:33:01;;;;;;;5.85;4.38;;;25.90;1.00;;;;;;7379305;19;20018;-69
2023/06/17 10:35:41;;;;;;;8.27;5.30;;;26.70;1.00;;;;;;7379427;19;20039;-70
2023/06/17 10:38:28;;;;;;;7.55;4.30;;;26.90;1.00;;;;;;7378296;19;20579;-70
2023/06/17 10:41:07;;;;;;;7.30;4.60;;;26.30;1.00;;;;;;7384032;19;20011;-70
2023/06/17 10:43:38;;;;;;;5.75;4.55;;;26.70;1.00;;;;;;7391219;19;20014;-70
2023/06/17 10:46:11;;;;;;;8.55;4.75;;;26.80;1.00;;;;;;7385473;19;20011;-69
2023/06/17 10:48:41;;;;;;;6.97;4.45;;;27.10;1.00;;;;;;7387763;19;20022;-70
2023/06/17 10:51:12;;;;;;;5.80;4.50;;;26.60;1.00;;;;;;7385088;19;20408;-69
2023/06/17 10:53:50;;;;;;;6.25;4.88;;;26.60;1.00;;;;;;7386342;19;20015;-71
2023/06/17 10:56:21;;;;;;;7.88;4.65;;;26.10;1.00;;;;;;7386677;19;20082;-70
2023/06/17 10:58:51;;;;;;;6.20;4.95;;;26.90;1.00;;;;;;7384754;19;20490;-70
2023/06/17 11:01:24;;;;;;;7.10;4.55;;;27.10;1.00;;;;;;7384585;19;20086;-71
2023/06/17 11:03:54;;;;;;;6.22;4.43;;;27.00;1.00;;;;;;7386731;19;20024;-70
2023/06/17 11:06:24;;;;;;;5.00;4.20;;;27.10;1.00;;;;;;7386732;19;20045;-70
2023/06/17 11:08:54;;;;;;;9.63;4.50;;;26.90;1.00;;;;;;7388286;19;20344;-69
2023/06/17 11:11:24;;;;;;;4.38;3.97;;;27.30;1.00;;;;;;7384460;19;20039;-70
2023/06/17 11:13:54;;;;;;;6.40;3.72;;;27.70;1.00;;;;;;7385962;19;20499;-70
2023/06/17 11:16:28;;;;;;;6.20;3.85;;;27.20;1.00;;;;;;7387459;19;20502;-70
2023/06/17 11:18:59;;;;;;;5.55;4.30;;;27.90;1.00;;;;;;7385982;19;20340;-70
2023/06/17 11:21:29;;;;;;;4.70;3.85;;;28.40;1.00;;;;;;7383484;19;20018;-69
2023/06/17 11:23:59;;;;;;;5.93;3.65;;;28.10;1.00;;;;;;7385993;19;20605;-69
2023/06/17 11:26:29;;;;;;;8.23;4.43;;;28.40;1.00;;;;;;7385973;19;20490;-71
2023/06/17 11:28:59;;;;;;;5.00;4.13;;;27.50;1.00;;;;;;7385394;19;20131;-70
2023/06/17 11:31:38;;;;;;;4.68;4.20;;;26.80;1.00;;;;;;7383806;19;20014;-70
2023/06/17 11:34:09;;;;;;;5.72;4.15;;;26.50;1.00;;;;;;7386482;19;20474;-70
2023/06/17 11:36:40;;;;;;;6.35;4.00;;;26.10;1.00;;;;;;7385731;19;20039;-71
2023/06/17 11:39:10;;;;;;;4.30;3.90;;;26.50;1.00;;;;;;7389019;19;20014;-70
2023/06/17 11:41:41;;;;;;;4.25;3.65;;;26.50;1.00;;;;;;7389305;19;20025;-70
2023/06/17 11:44:11;;;;;;;4.82;3.53;;;26.40;1.00;;;;;;7384711;19;20015;-71
2023/06/17 11:46:44;;;;;;;4.55;4.10;;;25.80;1.00;;;;;;7384906;19;20074;-72
2023/06/17 11:49:16;;;;;;;4.57;4.07;;;25.80;1.00;;;;;;7384389;19;20052;-70
2023/06/17 11:51:50;;;;;;;4.82;3.95;;;26.30;1.00;;;;;;7383498;19;20056;-70
2023/06/17 11:54:21;;;;;;;;;;;26.50;1.00;;;;;;7386035;19;20010;-71
2023/06/17 11:56:51;;;;;;;4.38;3.58;;;27.10;1.00;;;;;;7384786;19;20354;-70
2023/06/17 11:59:22;;;;;;;6.20;3.55;;;26.90;1.00;;;;;;7384260;19;20014;-70
2023/06/17 12:01:56;;;;;;;3.60;3.30;;;27.40;1.00;;;;;;7383707;19;20014;-70
2023/06/17 12:04:28;;;;;;;4.45;3.15;;;28.00;1.00;;;;;;7384042;19;20015;-70
2023/06/17 12:06:58;;;;;;;3.85;3.28;;;27.50;1.00;;;;;;7384721;19;20018;-70
2023/06/17 12:09:29;;;;;;;5.03;2.95;;;28.10;1.00;;;;;;7387124;19;20487;-72
2023/06/17 12:12:01;;;;;;;3.63;3.33;;;27.30;1.00;;;;;;7384183;19;20024;-71
2023/06/17 12:14:31;;;;;;;3.80;3.15;;;27.60;1.00;;;;;;7384804;19;20373;-69
2023/06/17 12:17:04;;;;;;;5.18;3.38;;;27.20;1.00;;;;;;7384434;19;20014;-70
2023/06/17 12:19:36;;;;;;;6.22;3.33;;;27.00;1.00;;;;;;7383295;19;20039;-71
2023/06/17 12:22:14;;;;;;;5.30;3.30;;;27.30;1.00;;;;;;7384401;19;20482;-70
2023/06/17 12:24:44;;;;;;;4.20;3.40;;;26.90;1.00;;;;;;7383537;19;20039;-71
2023/06/17 12:27:14;;;;;;;6.45;3.10;;;27.80;1.00;;;;;;7383432;19;20032;-71
2023/06/17 12:29:44;;;;;;;5.65;3.35;;;27.90;1.00;;;;;;7386119;19;20094;-71
2023/06/17 12:32:18;;;;;;;5.45;3.42;;;27.70;1.00;;;;;;7384192;19;20038;-71
2023/06/17 12:34:48;;;;;;;6.80;3.75;;;26.80;1.00;;;;;;7387394;19;20038;-72
2023/06/17 12:37:21;;;;;;;3.67;3.30;;;27.00;1.00;;;;;;7387409;19;20018;-71
2023/06/17 12:39:53;;;;;;;6.00;3.45;;;27.70;1.00;;;;;;7382648;19;20537;-71
2023/06/17 12:42:23;;;;;;;5.05;3.47;;;27.70;1.00;;;;;;7382457;19;20014;-71
2023/06/17 12:44:53;;;;;;;5.10;3.60;;;27.50;1.00;;;;;;7383518;19;20056;-70
2023/06/17 12:47:26;;;;;;;4.18;3.08;;;27.50;1.00;;;;;;7383030;19;20014;-70
2023/06/17 12:49:56;;;;;;;3.90;2.83;;;28.10;1.00;;;;;;7382440;19;20029;-71
2023/06/17 12:52:26;;;;;;;3.83;3.15;;;27.70;1.00;;;;;;7381601;19;20515;-71
2023/06/17 12:55:00;;;;;;;10.73;3.42;;;27.00;1.00;;;;;;7383183;19;20019;-70
2023/06/17 12:57:32;;;;;;;4.97;3.88;;;26.80;1.00;;;;;;7383375;19;20031;-71
2023/06/17 13:00:03;;;;;;;3.92;3.25;;;27.30;1.00;;;;;;7380601;19;20278;-71
2023/06/17 13:02:37;;;;;;;5.80;3.33;;;28.00;1.00;;;;;;7383023;19;20552;-71
2023/06/17 13:05:08;;;;;;;5.28;3.10;;;27.80;1.00;;;;;;7382517;19;20021;-71
2023/06/17 13:07:38;;;;;;;4.38;3.33;;;27.80;1.00;;;;;;7382156;19;20014;-69
2023/06/17 13:10:09;;;;;;;6.75;3.90;;;27.40;1.00;;;;;;7385720;19;20035;-70
2023/06/17 13:12:39;;;;;;;5.15;3.28;;;27.30;1.00;;;;;;7382182;19;20010;-71
2023/06/17 13:15:10;;;;;;;5.10;3.40;;;27.50;1.00;;;;;;7382966;19;20921;-71
2023/06/17 13:17:43;;;;;;;6.22;4.00;;;28.00;1.00;;;;;;7383374;19;20018;-71